Time;durP1;ratioP1;P1;durP2;ratioP2;P2;SDS_P1;SDS_P2;PMS_P1;PMS_P2;Temp;Humidity;BMP_temperature;BMP_pressure;BME280_temperature;BME280_humidity;BME280_pressure;Samples;Min_cycle;Max_cycle;Signal;HPM_P1;HPM_P2
2022/01/04 00:02:03;;;;;;;1.48;1.15;;;7.60;99.90;;;;;;5039183;28;20104;-77
2022/01/04 00:04:29;;;;;;;2.10;1.45;;;7.60;99.90;;;;;;5038378;28;20041;-77
2022/01/04 00:06:55;;;;;;;9.15;1.25;;;7.60;99.90;;;;;;5039413;28;20392;-77
2022/01/04 00:09:21;;;;;;;5.25;1.98;;;7.60;99.90;;;;;;5037840;28;20045;-77
2022/01/04 00:13:20;;;;;;;12.18;2.40;;;7.60;99.90;;;;;;5038916;28;20037;-77
2022/01/04 00:14:32;;;;;;;3.90;1.92;;;7.60;99.90;;;;;;5038476;28;20408;-77
2022/01/04 00:16:57;;;;;;;4.28;2.25;;;7.60;99.90;;;;;;5042095;28;20041;-77
2022/01/04 00:19:23;;;;;;;1.45;1.17;;;7.60;99.90;;;;;;5040513;28;20539;-77
2022/01/04 00:21:49;;;;;;;8.57;1.35;;;7.70;99.90;;;;;;5042781;28;20037;-77
2022/01/04 00:24:14;;;;;;;6.55;1.35;;;7.70;99.90;;;;;;5043078;28;20040;-77
2022/01/04 00:26:40;;;;;;;1.50;0.47;;;7.70;99.90;;;;;;5041413;28;20045;-77
2022/01/04 00:29:06;;;;;;;1.05;0.68;;;7.70;99.90;;;;;;5039984;28;20114;-77
2022/01/04 00:31:31;;;;;;;2.97;1.00;;;7.70;99.90;;;;;;5022526;28;20103;-77
2022/01/04 00:33:57;;;;;;;5.15;2.22;;;7.70;99.90;;;;;;5021720;28;20051;-77
2022/01/04 00:36:25;;;;;;;8.13;1.83;;;7.70;99.90;;;;;;5022189;28;20491;-77
2022/01/04 00:38:50;;;;;;;7.07;1.58;;;7.70;99.90;;;;;;5021207;28;20045;-77
2022/01/04 00:41:16;;;;;;;5.95;2.22;;;7.70;99.90;;;;;;5022565;28;20497;-77
2022/01/04 00:43:44;;;;;;;5.32;1.40;;;7.70;99.90;;;;;;5022646;28;20543;-77
2022/01/04 00:46:16;;;;;;;1.83;1.73;;;7.80;99.90;;;;;;5022970;28;20056;-77
2022/01/04 00:51:26;;;;;;;5.10;1.17;;;7.80;99.90;;;;;;5020839;28;20060;-77
2022/01/04 00:53:51;;;;;;;2.33;0.82;;;7.80;99.90;;;;;;5022344;28;20124;-77
2022/01/04 00:56:17;;;;;;;17.67;2.42;;;7.80;99.90;;;;;;5022032;28;20788;-76
2022/01/04 00:58:42;;;;;;;2.10;0.85;;;7.80;99.90;;;;;;5022667;28;20463;-76
2022/01/04 01:01:08;;;;;;;0.70;0.70;;;7.80;99.90;;;;;;5022548;28;20411;-77
2022/01/04 01:03:33;;;;;;;3.10;1.23;;;7.80;99.90;;;;;;5020368;28;20053;-77
2022/01/04 01:05:59;;;;;;;4.18;1.55;;;7.80;99.90;;;;;;5019974;28;20653;-77
2022/01/04 01:08:24;;;;;;;17.38;2.38;;;7.80;99.90;;;;;;5021289;28;20119;-77
2022/01/04 01:10:50;;;;;;;2.65;1.10;;;7.80;99.90;;;;;;5021185;28;20124;-77
2022/01/04 01:13:17;;;;;;;6.03;2.22;;;7.80;99.90;;;;;;5021566;28;20425;-77
2022/01/04 01:15:45;;;;;;;2.08;1.02;;;7.80;99.90;;;;;;5021935;28;20188;-77
2022/01/04 01:18:12;;;;;;;7.78;2.35;;;7.80;99.90;;;;;;5022067;28;20050;-77
2022/01/04 01:20:38;;;;;;;4.47;2.00;;;7.80;99.90;;;;;;5019743;28;20246;-77
2022/01/04 01:23:04;;;;;;;3.78;1.65;;;7.80;99.90;;;;;;5020905;28;20061;-77
2022/01/04 01:25:30;;;;;;;2.08;1.60;;;7.80;99.90;;;;;;5021520;28;20120;-77
2022/01/04 01:27:55;;;;;;;6.13;2.05;;;7.80;99.90;;;;;;5021215;28;20456;-77
2022/01/04 01:30:22;;;;;;;12.10;3.17;;;7.80;99.90;;;;;;5034750;28;20348;-77
2022/01/04 01:32:48;;;;;;;7.88;1.40;;;7.80;99.90;;;;;;5041583;28;20067;-77
2022/01/04 01:35:14;;;;;;;9.45;2.85;;;7.80;99.90;;;;;;5039463;28;20369;-77
2022/01/04 01:37:40;;;;;;;14.57;1.58;;;7.80;99.90;;;;;;5039494;28;20057;-77
2022/01/04 01:40:06;;;;;;;3.38;2.28;;;7.80;99.90;;;;;;5040462;28;20049;-77
2022/01/04 01:42:31;;;;;;;9.43;2.65;;;7.80;99.90;;;;;;5040449;28;20139;-77
2022/01/04 01:44:57;;;;;;;2.83;1.52;;;7.80;99.90;;;;;;5040262;28;20140;-77
2022/01/04 01:47:23;;;;;;;5.15;1.73;;;7.80;99.90;;;;;;5039535;28;20071;-77
2022/01/04 01:49:49;;;;;;;2.10;1.45;;;7.80;99.90;;;;;;5039586;28;20045;-77
2022/01/04 01:52:15;;;;;;;1.77;1.35;;;7.80;99.90;;;;;;5023433;28;20044;-77
2022/01/04 01:54:41;;;;;;;10.55;2.72;;;7.80;99.90;;;;;;5040173;28;20040;-77
2022/01/04 01:57:06;;;;;;;8.05;2.28;;;7.80;99.90;;;;;;5040786;28;20045;-77
2022/01/04 01:59:32;;;;;;;22.83;2.13;;;7.90;99.90;;;;;;5041351;28;20053;-77
2022/01/04 02:01:58;;;;;;;5.47;1.10;;;7.80;99.90;;;;;;5040170;28;20060;-76
2022/01/04 02:04:23;;;;;;;15.52;1.85;;;7.80;99.90;;;;;;5039964;28;20487;-77
2022/01/04 02:06:50;;;;;;;2.28;1.13;;;7.90;99.90;;;;;;5040861;28;20064;-77
2022/01/04 02:09:16;;;;;;;27.17;2.22;;;7.90;99.90;;;;;;5040869;28;20499;-77
2022/01/04 02:11:42;;;;;;;9.82;1.38;;;7.90;99.90;;;;;;5041492;28;20082;-77
2022/01/04 02:14:08;;;;;;;4.55;2.25;;;7.90;99.90;;;;;;5040788;28;20080;-76
2022/01/04 02:16:33;;;;;;;7.03;2.75;;;7.90;99.90;;;;;;5040449;28;20083;-77
2022/01/04 02:19:00;;;;;;;9.30;2.83;;;7.90;99.90;;;;;;5040216;28;20040;-77
2022/01/04 02:21:26;;;;;;;4.43;3.08;;;7.90;99.90;;;;;;5041279;28;20081;-77
2022/01/04 02:23:51;;;;;;;40.08;3.05;;;7.90;99.90;;;;;;5039311;28;20087;-77
2022/01/04 02:26:18;;;;;;;23.33;3.47;;;7.90;99.90;;;;;;5039883;28;20076;-77
2022/01/04 02:28:45;;;;;;;3.35;3.05;;;7.90;99.90;;;;;;5040628;28;20225;-77
2022/01/04 02:31:10;;;;;;;10.73;3.63;;;7.90;99.90;;;;;;5019954;28;20041;-77
2022/01/04 02:33:36;;;;;;;11.32;3.70;;;7.90;99.90;;;;;;5018946;28;20057;-77
2022/01/04 02:36:01;;;;;;;21.05;2.78;;;7.90;99.90;;;;;;5018667;28;20045;-77
2022/01/04 02:38:27;;;;;;;12.05;2.53;;;7.90;99.90;;;;;;5021200;28;20033;-77
2022/01/04 02:40:52;;;;;;;9.07;3.10;;;7.90;99.90;;;;;;5020544;28;20128;-77
2022/01/04 02:43:18;;;;;;;8.52;3.25;;;7.90;99.90;;;;;;5021434;28;20034;-77
2022/01/04 02:45:43;;;;;;;6.20;2.00;;;7.90;99.90;;;;;;5021138;28;20049;-77
2022/01/04 02:48:09;;;;;;;7.00;2.78;;;7.90;99.90;;;;;;5020473;28;20057;-77
2022/01/04 02:50:35;;;;;;;3.00;2.80;;;7.90;99.90;;;;;;5018999;28;20112;-77
2022/01/04 02:53:00;;;;;;;9.05;3.40;;;7.90;99.90;;;;;;5021032;28;20106;-77
2022/01/04 02:55:26;;;;;;;13.05;3.78;;;7.90;99.90;;;;;;5019479;28;20056;-77
2022/01/04 02:57:52;;;;;;;6.95;3.20;;;7.90;99.90;;;;;;5021320;28;20757;-77
2022/01/04 03:00:18;;;;;;;8.15;3.63;;;7.90;99.90;;;;;;5020024;28;20049;-77
2022/01/04 03:02:43;;;;;;;16.30;3.67;;;7.90;99.90;;;;;;5021604;28;20125;-77
2022/01/04 03:05:10;;;;;;;14.07;3.00;;;7.90;99.90;;;;;;5019623;28;20136;-77
2022/01/04 03:07:36;;;;;;;14.10;3.30;;;7.90;99.90;;;;;;5021012;28;20049;-77
2022/01/04 03:10:03;;;;;;;14.75;3.75;;;7.90;99.90;;;;;;5020298;28;20524;-77
2022/01/04 03:12:29;;;;;;;2.97;2.70;;;7.90;99.90;;;;;;5020280;28;20111;-77
2022/01/04 03:14:54;;;;;;;2.35;2.13;;;7.90;99.90;;;;;;5021202;28;20042;-77
2022/01/04 03:17:20;;;;;;;6.90;2.60;;;7.90;99.90;;;;;;5020504;28;20045;-77
2022/01/04 03:19:45;;;;;;;5.63;2.40;;;7.90;99.90;;;;;;5020189;28;20043;-77
2022/01/04 03:22:11;;;;;;;18.50;3.75;;;7.90;99.90;;;;;;5019841;28;20103;-77
2022/01/04 03:24:36;;;;;;;19.40;3.15;;;7.90;99.90;;;;;;5020730;28;20053;-77
2022/01/04 03:27:02;;;;;;;23.02;4.15;;;7.90;99.90;;;;;;5019671;28;20449;-77
2022/01/04 03:29:28;;;;;;;9.82;2.70;;;7.90;99.90;;;;;;5026188;28;20118;-77
2022/01/04 03:31:55;;;;;;;6.35;3.03;;;7.90;99.90;;;;;;5039784;28;20065;-77
2022/01/04 03:34:20;;;;;;;20.92;3.22;;;7.90;99.90;;;;;;5039127;28;20502;-77
2022/01/04 03:36:47;;;;;;;6.70;2.63;;;7.90;99.90;;;;;;5039197;28;20056;-77
2022/01/04 03:39:13;;;;;;;8.43;3.20;;;7.90;99.90;;;;;;5040876;28;20076;-77
2022/01/04 03:41:42;;;;;;;4.55;2.10;;;7.90;99.90;;;;;;5040434;28;20044;-76
2022/01/04 03:44:10;;;;;;;6.80;1.85;;;7.90;99.90;;;;;;5040855;28;20045;-77
2022/01/04 03:46:36;;;;;;;8.43;3.22;;;8.00;99.90;;;;;;5040222;28;20048;-77
2022/01/04 03:49:03;;;;;;;3.03;2.22;;;7.90;99.90;;;;;;5038019;28;20098;-77
2022/01/04 03:51:29;;;;;;;5.28;1.25;;;7.90;99.90;;;;;;5039950;28;20037;-77
2022/01/04 03:53:54;;;;;;;9.95;3.08;;;7.90;99.90;;;;;;5040798;28;20585;-77
2022/01/04 03:56:20;;;;;;;6.97;1.90;;;7.90;99.90;;;;;;5022491;28;20142;-77
2022/01/04 03:58:45;;;;;;;10.57;2.90;;;8.00;99.90;;;;;;5040220;28;20041;-77
2022/01/04 04:01:11;;;;;;;1.98;1.85;;;8.00;99.90;;;;;;5040282;28;20736;-77
2022/01/04 04:03:36;;;;;;;11.82;2.20;;;7.90;99.90;;;;;;5038137;28;20067;-77
2022/01/04 04:06:02;;;;;;;8.35;2.67;;;7.90;99.90;;;;;;5040340;28;20088;-77
2022/01/04 04:08:28;;;;;;;21.13;2.67;;;7.90;99.90;;;;;;5038841;28;20069;-77
2022/01/04 04:10:54;;;;;;;18.58;1.85;;;7.90;99.90;;;;;;5040121;28;20056;-77
2022/01/04 04:13:19;;;;;;;5.50;2.83;;;7.90;99.90;;;;;;5040093;28;20440;-77
2022/01/04 04:15:45;;;;;;;7.85;1.48;;;7.90;99.90;;;;;;5039411;28;20081;-77
2022/01/04 04:18:13;;;;;;;4.35;2.10;;;7.90;99.90;;;;;;5039706;28;20047;-77
2022/01/04 04:20:39;;;;;;;4.35;1.40;;;7.90;99.90;;;;;;5038081;28;20053;-77
2022/01/04 04:23:06;;;;;;;24.45;2.03;;;8.00;99.90;;;;;;5039537;28;20080;-77
2022/01/04 04:25:32;;;;;;;1.90;1.48;;;8.00;99.90;;;;;;5039198;28;20095;-77
2022/01/04 04:27:58;;;;;;;4.32;1.67;;;7.90;99.90;;;;;;5040099;28;20402;-77
2022/01/04 04:30:23;;;;;;;5.68;2.42;;;8.00;99.90;;;;;;5026415;28;20033;-77
2022/01/04 04:32:49;;;;;;;3.03;1.27;;;8.00;99.90;;;;;;5020047;28;20531;-77
2022/01/04 04:35:15;;;;;;;3.05;1.42;;;8.00;99.90;;;;;;5019525;28;20034;-77
2022/01/04 04:37:41;;;;;;;3.10;0.90;;;8.00;99.90;;;;;;5020055;28;20128;-77
2022/01/04 04:40:07;;;;;;;15.20;2.05;;;8.00;99.90;;;;;;5020266;28;20112;-76
2022/01/04 04:42:33;;;;;;;5.35;1.23;;;8.00;99.90;;;;;;5019836;28;20091;-77
2022/01/04 04:44:59;;;;;;;16.20;2.70;;;8.00;99.90;;;;;;5019295;28;20053;-77
2022/01/04 04:47:24;;;;;;;6.88;1.55;;;8.00;99.90;;;;;;5019565;28;20048;-77
2022/01/04 04:49:50;;;;;;;7.43;0.80;;;8.00;99.90;;;;;;5019060;28;20128;-77
2022/01/04 04:52:15;;;;;;;4.55;1.08;;;8.00;99.90;;;;;;5020284;28;20053;-77
2022/01/04 04:54:41;;;;;;;17.73;2.47;;;8.00;99.90;;;;;;5018798;28;20060;-76
2022/01/04 04:57:07;;;;;;;13.93;2.45;;;8.00;99.90;;;;;;5019095;28;20049;-77
2022/01/04 04:59:32;;;;;;;12.15;2.70;;;8.00;99.90;;;;;;5018268;28;20562;-77
2022/01/04 05:01:58;;;;;;;10.77;1.50;;;8.00;99.90;;;;;;5021291;28;20045;-77
2022/01/04 05:04:23;;;;;;;6.25;1.92;;;8.00;99.90;;;;;;5021851;28;20150;-77
2022/01/04 05:06:49;;;;;;;8.73;1.70;;;8.00;99.90;;;;;;5023039;28;20057;-77
2022/01/04 05:09:15;;;;;;;6.47;2.03;;;8.00;99.90;;;;;;5022144;28;20563;-77
2022/01/04 05:11:40;;;;;;;8.90;2.33;;;8.00;99.90;;;;;;5022977;28;20041;-77
2022/01/04 05:14:06;;;;;;;10.60;1.83;;;8.00;99.90;;;;;;5023989;28;20115;-77
2022/01/04 05:16:31;;;;;;;15.10;2.60;;;8.00;99.90;;;;;;5022783;28;20045;-77
2022/01/04 05:18:57;;;;;;;0.95;0.68;;;8.00;99.90;;;;;;5022403;28;20048;-77
2022/01/04 05:21:22;;;;;;;0.75;0.75;;;8.00;99.90;;;;;;5023148;28;20046;-76
2022/01/04 05:23:50;;;;;;;1.60;1.35;;;8.10;99.90;;;;;;5023338;28;20515;-77
2022/01/04 05:26:16;;;;;;;2.45;1.38;;;8.00;99.90;;;;;;5023145;28;20134;-77
2022/01/04 05:28:45;;;;;;;11.07;1.35;;;8.00;99.90;;;;;;5022763;28;20045;-77
2022/01/04 05:31:11;;;;;;;9.63;2.55;;;8.10;99.90;;;;;;5040902;28;20053;-76
2022/01/04 05:33:37;;;;;;;5.25;1.02;;;8.00;99.90;;;;;;5040860;28;20083;-77
2022/01/04 05:36:03;;;;;;;1.65;1.42;;;8.00;99.90;;;;;;5043054;28;20080;-77
2022/01/04 05:38:28;;;;;;;20.20;1.80;;;8.10;99.90;;;;;;5042706;28;20041;-77
2022/01/04 05:40:54;;;;;;;5.38;0.65;;;8.00;99.90;;;;;;5042577;28;20049;-76
2022/01/04 05:43:19;;;;;;;4.28;2.20;;;8.10;99.90;;;;;;5040882;28;20040;-76
2022/01/04 05:45:45;;;;;;;12.25;1.98;;;8.10;99.90;;;;;;5041646;28;20037;-77
2022/01/04 05:48:10;;;;;;;14.65;1.70;;;8.10;99.90;;;;;;5040809;28;20056;-76
2022/01/04 05:50:38;;;;;;;17.73;2.75;;;8.10;99.90;;;;;;5041804;28;20102;-77
2022/01/04 05:53:04;;;;;;;21.45;2.50;;;8.10;99.90;;;;;;5043025;28;20045;-77
2022/01/04 05:55:29;;;;;;;1.75;1.15;;;8.10;99.90;;;;;;5042150;28;20095;-77
2022/01/04 05:57:55;;;;;;;5.05;1.40;;;8.10;99.90;;;;;;5041246;28;20468;-77
2022/01/04 06:00:20;;;;;;;19.35;2.22;;;8.10;99.90;;;;;;5040191;28;20446;-77
2022/01/04 06:02:46;;;;;;;10.43;2.30;;;8.10;99.90;;;;;;5042539;28;20514;-76
2022/01/04 06:05:11;;;;;;;2.00;1.48;;;8.10;99.90;;;;;;5040283;28;20053;-76
2022/01/04 06:07:37;;;;;;;10.00;1.52;;;8.10;99.90;;;;;;5040903;28;20084;-77
2022/01/04 06:10:05;;;;;;;5.88;2.08;;;8.00;99.90;;;;;;5040756;28;20048;-77
2022/01/04 06:15:02;;;;;;;4.90;1.75;;;8.10;99.90;;;;;;5041086;28;20141;-77
2022/01/04 06:17:32;;;;;;;2.40;1.40;;;8.10;99.90;;;;;;5040924;28;20053;-77
2022/01/04 06:19:58;;;;;;;5.75;2.30;;;8.10;99.90;;;;;;5040083;28;20120;-77
2022/01/04 06:22:26;;;;;;;17.13;2.17;;;8.10;99.90;;;;;;5041922;28;20041;-77
2022/01/04 06:24:53;;;;;;;5.35;0.68;;;8.10;99.90;;;;;;5040707;28;20048;-77
2022/01/04 06:27:18;;;;;;;5.30;1.17;;;8.10;99.90;;;;;;5040031;28;20049;-77
2022/01/04 06:29:44;;;;;;;30.35;1.30;;;8.10;99.90;;;;;;5033572;28;20107;-77
2022/01/04 06:32:11;;;;;;;20.08;1.83;;;8.10;99.90;;;;;;5022670;28;20045;-77
2022/01/04 06:34:38;;;;;;;1.35;0.80;;;8.10;99.90;;;;;;5028066;28;20045;-78
2022/01/04 06:37:04;;;;;;;22.45;2.33;;;8.10;99.90;;;;;;5038893;28;20150;-79
2022/01/04 06:39:31;;;;;;;7.32;1.60;;;8.10;99.90;;;;;;5040579;28;20037;-77
2022/01/04 06:41:56;;;;;;;11.40;1.63;;;8.10;99.90;;;;;;5040707;28;20053;-78
2022/01/04 06:44:22;;;;;;;1.10;1.00;;;8.10;99.90;;;;;;5041314;28;20047;-76
2022/01/04 06:46:47;;;;;;;3.42;1.58;;;8.00;99.90;;;;;;5040999;28;20406;-76
2022/01/04 06:49:14;;;;;;;0.95;0.95;;;8.10;99.90;;;;;;5039197;28;20557;-76
2022/01/04 06:51:39;;;;;;;14.18;2.00;;;8.10;99.90;;;;;;5040347;28;20253;-77
2022/01/04 06:54:06;;;;;;;18.52;2.47;;;8.10;99.90;;;;;;5039102;28;20487;-76
2022/01/04 06:56:32;;;;;;;3.58;1.00;;;8.10;99.90;;;;;;5040022;28;20053;-76
2022/01/04 06:58:57;;;;;;;12.43;1.35;;;8.10;99.90;;;;;;5040090;28;20076;-76
2022/01/04 07:01:23;;;;;;;10.90;1.67;;;8.10;99.90;;;;;;5039791;28;20428;-76
2022/01/04 07:03:48;;;;;;;5.88;1.30;;;8.00;99.90;;;;;;5039530;28;20127;-76
2022/01/04 07:06:14;;;;;;;3.33;1.13;;;8.00;99.90;;;;;;5038258;28;20052;-76
2022/01/04 07:08:39;;;;;;;5.85;1.33;;;8.00;99.90;;;;;;5039618;28;20167;-76
2022/01/04 07:11:05;;;;;;;4.75;1.60;;;8.00;99.90;;;;;;5038754;28;20052;-76
2022/01/04 07:13:31;;;;;;;1.48;1.38;;;8.00;99.90;;;;;;5021654;28;20095;-76
2022/01/04 07:15:56;;;;;;;4.80;1.70;;;8.00;99.90;;;;;;5039460;28;20041;-76
2022/01/04 07:18:22;;;;;;;8.88;2.30;;;8.00;99.90;;;;;;5038411;28;20056;-75
2022/01/04 07:20:48;;;;;;;7.50;1.48;;;8.00;99.90;;;;;;5040045;28;20048;-76
2022/01/04 07:23:13;;;;;;;15.73;1.33;;;8.00;99.90;;;;;;5039694;28;20040;-75
2022/01/04 07:25:39;;;;;;;1.88;1.38;;;8.00;99.90;;;;;;5038528;28;20045;-75
2022/01/04 07:28:04;;;;;;;28.10;1.63;;;7.90;99.90;;;;;;5039520;28;20045;-76
2022/01/04 07:30:30;;;;;;;6.88;3.25;;;8.00;99.90;;;;;;5025548;28;20107;-75
2022/01/04 07:32:56;;;;;;;11.48;1.70;;;8.00;99.90;;;;;;5018058;28;20060;-75
2022/01/04 07:35:21;;;;;;;7.10;1.30;;;8.00;99.90;;;;;;5018283;28;20415;-76
2022/01/04 07:37:47;;;;;;;7.78;0.88;;;8.00;99.90;;;;;;5020262;28;20455;-75
2022/01/04 07:40:13;;;;;;;20.17;2.38;;;8.00;99.90;;;;;;5019523;28;20042;-75
2022/01/04 07:42:38;;;;;;;10.13;3.67;;;7.90;99.90;;;;;;5018965;28;20459;-76
2022/01/04 07:45:05;;;;;;;1.23;1.13;;;7.90;99.90;;;;;;5019208;28;20057;-75
2022/01/04 07:47:30;;;;;;;2.00;1.80;;;7.90;99.90;;;;;;5017533;28;20124;-75
2022/01/04 07:49:56;;;;;;;2.42;1.27;;;7.90;99.90;;;;;;5019035;28;20278;-76
2022/01/04 07:52:22;;;;;;;1.08;0.95;;;7.90;99.90;;;;;;5018033;28;20389;-76
2022/01/04 07:54:47;;;;;;;7.85;1.48;;;7.90;99.90;;;;;;5019092;28;20033;-75
2022/01/04 07:57:13;;;;;;;3.03;1.05;;;7.90;99.90;;;;;;5017882;28;20535;-75
2022/01/04 07:59:39;;;;;;;11.73;2.05;;;7.90;99.90;;;;;;5017982;28;20636;-76
2022/01/04 08:02:05;;;;;;;5.00;0.65;;;7.90;99.90;;;;;;5019659;28;20116;-76
2022/01/04 08:04:30;;;;;;;9.55;1.45;;;7.90;99.90;;;;;;5017377;28;20448;-75
2022/01/04 08:06:56;;;;;;;1.40;1.02;;;7.90;99.90;;;;;;5018809;28;20066;-75
2022/01/04 08:09:22;;;;;;;1.15;0.68;;;7.80;99.90;;;;;;5022117;28;20459;-76
2022/01/04 08:11:47;;;;;;;1.17;0.75;;;7.70;99.90;;;;;;5028111;28;20041;-75
2022/01/04 08:14:13;;;;;;;0.25;0.25;;;7.70;99.90;;;;;;5019768;28;20515;-76
2022/01/04 08:16:39;;;;;;;0.10;0.10;;;7.70;99.90;;;;;;5020008;28;20050;-75
2022/01/04 08:19:05;;;;;;;2.40;0.95;;;7.60;99.90;;;;;;5018494;28;20779;-76
2022/01/04 08:21:30;;;;;;;1.70;0.80;;;7.60;99.90;;;;;;5018849;28;20088;-75
2022/01/04 08:23:56;;;;;;;0.52;0.52;;;7.60;99.90;;;;;;5020399;28;20392;-76
2022/01/04 08:26:22;;;;;;;0.60;0.60;;;7.50;99.90;;;;;;5020107;28;20561;-75
2022/01/04 08:28:47;;;;;;;9.73;1.02;;;7.40;99.90;;;;;;5018847;28;20049;-75
2022/01/04 08:31:13;;;;;;;0.28;0.28;;;7.40;99.90;;;;;;5039836;28;20419;-75
2022/01/04 08:33:38;;;;;;;1.85;0.57;;;7.40;99.90;;;;;;5035654;28;20098;-75
2022/01/04 08:36:04;;;;;;;0.10;0.10;;;7.40;99.90;;;;;;5038779;28;20152;-75
2022/01/04 08:38:30;;;;;;;0.32;0.32;;;7.40;99.90;;;;;;5041406;28;20041;-75
2022/01/04 08:40:56;;;;;;;0.63;0.52;;;7.30;99.90;;;;;;5042705;28;20107;-76
2022/01/04 08:43:21;;;;;;;0.10;0.10;;;7.30;99.90;;;;;;5042302;28;20124;-76
2022/01/04 08:45:47;;;;;;;0.47;0.47;;;7.30;99.90;;;;;;5040667;28;20072;-75
2022/01/04 08:48:13;;;;;;;0.65;0.20;;;7.20;99.90;;;;;;5042180;28;20077;-76
2022/01/04 08:50:39;;;;;;;0.38;0.38;;;7.20;99.90;;;;;;5042320;28;20151;-76
2022/01/04 08:53:08;;;;;;;1.45;0.40;;;7.20;99.90;;;;;;5041717;28;20884;-76
2022/01/04 08:55:34;;;;;;;0.32;0.32;;;7.20;99.90;;;;;;5041816;28;20056;-76
2022/01/04 08:58:00;;;;;;;0.43;0.43;;;7.10;99.90;;;;;;5042918;28;20037;-76
2022/01/04 09:00:26;;;;;;;1.20;0.68;;;7.10;99.90;;;;;;5056893;28;20486;-76
2022/01/04 09:02:51;;;;;;;1.30;0.57;;;7.20;99.90;;;;;;5041940;28;20076;-77
2022/01/04 09:05:17;;;;;;;2.53;0.85;;;7.10;99.90;;;;;;5062090;28;20076;-77
2022/01/04 09:07:42;;;;;;;1.20;0.80;;;7.10;99.90;;;;;;5063442;28;20087;-77
2022/01/04 09:10:08;;;;;;;0.38;0.20;;;7.10;99.90;;;;;;5079013;28;20049;-77
2022/01/04 09:12:48;;;;;;;0.68;0.40;;;7.10;99.90;;;;;;5062413;28;20056;-77
2022/01/04 09:15:27;;;;;;;0.45;0.43;;;7.10;99.90;;;;;;5050234;28;20045;-85
2022/01/04 09:20:38;;;;;;;0.88;0.32;;;7.00;99.90;;;;;;5021181;28;20663;-76
2022/01/04 09:23:04;;;;;;;18.52;0.65;;;7.00;99.90;;;;;;5040293;28;20056;-76
2022/01/04 09:25:29;;;;;;;0.82;0.82;;;7.00;99.90;;;;;;5049565;28;20065;-77
2022/01/04 09:27:56;;;;;;;0.40;0.40;;;6.90;99.90;;;;;;5042713;28;21032;-78
2022/01/04 09:30:23;;;;;;;0.28;0.28;;;6.90;99.90;;;;;;5048917;28;20049;-80
2022/01/04 09:32:48;;;;;;;0.30;0.30;;;6.90;99.90;;;;;;5041379;28;20476;-78
2022/01/04 09:35:14;;;;;;;0.63;0.63;;;6.90;99.90;;;;;;5041746;28;20055;-78
2022/01/04 09:37:40;;;;;;;0.65;0.40;;;6.90;99.90;;;;;;5041714;28;20053;-77
2022/01/04 09:40:06;;;;;;;1.20;0.32;;;6.80;99.90;;;;;;5042940;28;20040;-78
2022/01/04 09:42:31;;;;;;;0.05;0.05;;;6.90;99.90;;;;;;5041899;28;20041;-78
2022/01/04 09:44:57;;;;;;;0.90;0.55;;;6.80;99.90;;;;;;5048738;28;20267;-78
2022/01/04 09:47:24;;;;;;;0.40;0.40;;;6.90;99.90;;;;;;5047371;28;20083;-78
2022/01/04 09:49:49;;;;;;;6.47;0.30;;;6.80;99.90;;;;;;5041384;28;20048;-78
2022/01/04 09:52:19;;;;;;;0.20;0.20;;;6.70;99.90;;;;;;5060411;28;20048;-78
2022/01/04 09:54:46;;;;;;;0.20;0.20;;;6.70;99.90;;;;;;5057058;28;20044;-79
2022/01/04 09:57:15;;;;;;;7.47;0.88;;;6.70;99.90;;;;;;5043094;28;20067;-78
2022/01/04 09:59:41;;;;;;;6.82;0.82;;;6.70;99.90;;;;;;5037198;28;20057;-78
2022/01/04 10:02:19;;;;;;;0.20;0.20;;;6.70;99.90;;;;;;5040924;28;20045;-78
2022/01/04 10:04:44;;;;;;;1.55;0.85;;;6.60;99.90;;;;;;5040001;28;20073;-78
2022/01/04 10:07:11;;;;;;;0.95;0.55;;;6.60;99.90;;;;;;5042193;28;20407;-78
2022/01/04 10:09:45;;;;;;;0.20;0.20;;;6.60;99.90;;;;;;5051648;28;20312;-79
2022/01/04 10:12:23;;;;;;;0.73;0.52;;;6.60;99.90;;;;;;5037254;28;20048;-78
2022/01/04 10:14:52;;;;;;;0.10;0.10;;;6.60;99.90;;;;;;5040513;28;20087;-78
2022/01/04 10:17:23;;;;;;;1.35;1.17;;;6.60;99.90;;;;;;5033441;28;20045;-77
2022/01/04 10:19:53;;;;;;;0.50;0.50;;;6.50;99.90;;;;;;5028941;28;20098;-77
2022/01/04 10:22:19;;;;;;;0.60;0.52;;;6.50;99.90;;;;;;5027662;28;20080;-78
2022/01/04 10:24:47;;;;;;;7.18;0.52;;;6.40;99.90;;;;;;5032409;28;20076;-78
2022/01/04 10:27:22;;;;;;;0.32;0.20;;;6.30;99.90;;;;;;5035966;28;20511;-78
2022/01/04 10:29:48;;;;;;;1.45;1.02;;;6.20;99.90;;;;;;5030842;28;20038;-77
2022/01/04 10:32:14;;;;;;;0.28;0.28;;;6.10;99.90;;;;;;5029235;28;20053;-78
2022/01/04 10:34:49;;;;;;;0.65;0.65;;;6.10;99.90;;;;;;5026787;28;20047;-78
2022/01/04 10:37:36;;;;;;;1.38;0.85;;;6.10;99.90;;;;;;5030201;28;20037;-81
2022/01/04 10:40:07;;;;;;;0.40;0.40;;;6.00;99.90;;;;;;5038913;28;20037;-80
2022/01/04 10:42:33;;;;;;;0.10;0.10;;;6.00;99.90;;;;;;5043643;28;20114;-80
2022/01/04 10:44:58;;;;;;;0.50;0.50;;;6.00;99.90;;;;;;5031044;28;21442;-81
2022/01/04 10:47:29;;;;;;;1.08;0.47;;;6.10;99.90;;;;;;5012699;28;20542;-79
2022/01/04 10:49:55;;;;;;;0.65;0.65;;;6.10;99.90;;;;;;5011823;28;20049;-79
2022/01/04 10:52:30;;;;;;;0.20;0.20;;;6.10;99.90;;;;;;5019711;28;20061;-79
2022/01/04 10:55:12;;;;;;;1.00;0.40;;;6.20;99.90;;;;;;5032053;28;20109;-79
2022/01/04 10:57:38;;;;;;;0.22;0.22;;;6.20;99.90;;;;;;5029423;28;20139;-78
2022/01/04 11:00:20;;;;;;;0.10;0.10;;;6.20;99.90;;;;;;5032128;28;20207;-81
2022/01/04 11:02:46;;;;;;;0.38;0.38;;;6.20;99.90;;;;;;5032554;28;20127;-79
2022/01/04 11:05:17;;;;;;;0.22;0.22;;;6.20;99.90;;;;;;5029939;28;20076;-79
2022/01/04 11:08:01;;;;;;;0.17;0.17;;;6.30;99.90;;;;;;5034555;28;20113;-79
2022/01/04 11:10:30;;;;;;;1.77;0.55;;;6.20;99.90;;;;;;5034427;28;20068;-79
2022/01/04 11:12:59;;;;;;;0.32;0.32;;;6.20;99.90;;;;;;5058669;28;20127;-79
2022/01/04 11:15:26;;;;;;;1.00;0.90;;;6.30;99.90;;;;;;5043837;28;20049;-81
2022/01/04 11:17:51;;;;;;;1.00;0.95;;;6.30;99.90;;;;;;5071647;28;20537;-80
2022/01/04 11:20:17;;;;;;;0.45;0.45;;;6.30;99.90;;;;;;5047314;28;20044;-80
2022/01/04 11:22:47;;;;;;;3.13;0.73;;;6.30;99.90;;;;;;5039341;28;20486;-81
2022/01/04 11:25:16;;;;;;;10.10;1.00;;;6.30;99.90;;;;;;5038048;28;20128;-84
2022/01/04 11:27:43;;;;;;;0.32;0.32;;;6.30;99.90;;;;;;5039462;28;20053;-79
2022/01/04 11:30:35;;;;;;;2.38;0.98;;;6.30;99.90;;;;;;5039164;28;20041;-80
2022/01/04 11:33:06;;;;;;;1.48;1.05;;;6.30;99.90;;;;;;5039152;28;20048;-80
2022/01/04 11:35:32;;;;;;;1.40;0.57;;;6.40;99.90;;;;;;5040128;28;20033;-80
2022/01/04 11:37:59;;;;;;;0.65;0.22;;;6.40;99.90;;;;;;5040638;28;20045;-81
2022/01/04 11:40:34;;;;;;;0.10;0.10;;;6.40;99.90;;;;;;5066522;28;20124;-80
2022/01/04 11:43:00;;;;;;;0.38;0.38;;;6.40;99.90;;;;;;5035331;28;20044;-80
2022/01/04 11:45:48;;;;;;;0.20;0.20;;;6.40;99.90;;;;;;5041112;28;20048;-81
2022/01/04 11:48:39;;;;;;;0.85;0.55;;;6.50;99.90;;;;;;5035384;28;20128;-80
2022/01/04 11:51:32;;;;;;;2.92;0.43;;;6.50;99.90;;;;;;5020199;28;20041;-81
2022/01/04 11:54:20;;;;;;;4.80;1.25;;;6.50;99.90;;;;;;5048768;28;20044;-83
2022/01/04 11:56:56;;;;;;;0.93;0.93;;;6.50;99.90;;;;;;5033172;28;20049;-82
2022/01/04 11:59:25;;;;;;;0.32;0.32;;;6.50;99.90;;;;;;5037932;28;20052;-81
2022/01/04 12:01:52;;;;;;;2.10;1.17;;;6.50;99.90;;;;;;5043331;28;20036;-84
2022/01/04 12:04:47;;;;;;;0.13;0.13;;;6.40;99.90;;;;;;5043521;28;20377;-88
2022/01/04 12:07:38;;;;;;;0.20;0.20;;;6.40;99.90;;;;;;5038588;28;20057;-88
2022/01/04 12:10:22;;;;;;;4.82;0.82;;;6.30;99.90;;;;;;5036050;28;20044;-91
2022/01/04 12:12:59;;;;;;;0.52;0.52;;;6.30;99.90;;;;;;5023823;28;20128;-87
2022/01/04 12:15:52;;;;;;;0.80;0.43;;;6.20;99.90;;;;;;5025138;28;20179;-87
2022/01/04 12:18:23;;;;;;;0.13;0.13;;;6.10;99.90;;;;;;5048143;28;20048;-91
2022/01/04 12:20:53;;;;;;;2.23;0.87;;;6.10;99.90;;;;;;5033071;28;20074;-87
2022/01/04 12:23:31;;;;;;;6.75;0.88;;;6.10;99.90;;;;;;5041998;28;20040;-84
2022/01/04 12:26:04;;;;;;;3.60;0.93;;;6.10;99.90;;;;;;5051746;28;20127;-88
2022/01/04 12:28:43;;;;;;;0.50;0.50;;;6.10;99.90;;;;;;5043710;28;20546;-80
2022/01/04 12:31:24;;;;;;;1.35;0.70;;;6.10;99.90;;;;;;5019882;28;20060;-78
2022/01/04 12:33:53;;;;;;;0.28;0.28;;;6.10;99.90;;;;;;5053742;28;20057;-79
2022/01/04 12:36:27;;;;;;;2.38;0.75;;;6.10;99.90;;;;;;5037766;28;20087;-80
2022/01/04 12:38:58;;;;;;;0.17;0.17;;;6.10;99.90;;;;;;5040060;28;20103;-80
2022/01/04 12:41:25;;;;;;;0.30;0.30;;;6.10;99.90;;;;;;5041350;28;20152;-80
2022/01/04 12:43:52;;;;;;;0.30;0.30;;;6.10;99.90;;;;;;5034186;28;20414;-80
2022/01/04 12:46:31;;;;;;;0.63;0.40;;;6.10;99.90;;;;;;5039278;28;20045;-80
2022/01/04 12:49:02;;;;;;;1.90;1.00;;;6.20;99.90;;;;;;5040464;28;20045;-80
2022/01/04 12:51:36;;;;;;;1.75;0.85;;;6.10;99.90;;;;;;5041207;28;20044;-80
2022/01/04 12:54:32;;;;;;;4.68;1.00;;;6.20;99.90;;;;;;5041075;28;20049;-79
2022/01/04 12:57:20;;;;;;;2.92;0.93;;;6.10;99.90;;;;;;5035152;28;20041;-82
2022/01/04 12:59:52;;;;;;;0.10;0.10;;;6.10;99.90;;;;;;5043056;28;20621;-77
2022/01/04 13:02:26;;;;;;;2.75;0.70;;;6.20;99.90;;;;;;5041090;28;20037;-79
2022/01/04 13:04:59;;;;;;;9.40;1.08;;;6.20;99.90;;;;;;5043232;28;20087;-77
2022/01/04 13:07:30;;;;;;;0.30;0.30;;;6.20;99.90;;;;;;5037722;28;20055;-79